Time;durP1;ratioP1;P1;durP2;ratioP2;P2;SDS_P1;SDS_P2;PMS_P1;PMS_P2;Temp;Humidity;BMP_temperature;BMP_pressure;BME280_temperature;BME280_humidity;BME280_pressure;Samples;Min_cycle;Max_cycle;Signal;HPM_P1;HPM_P2
2022/07/04 00:02:47;;;;;;;4.85;2.63;;;18.50;63.70;;;;;;9177612;19;20011;-68
2022/07/04 00:05:52;;;;;;;7.07;3.55;;;18.40;63.80;;;;;;9175061;19;20375;-67
2022/07/04 00:09:00;;;;;;;5.30;3.20;;;18.40;63.80;;;;;;9176661;19;20473;-67
2022/07/04 00:12:06;;;;;;;8.00;3.63;;;18.30;63.90;;;;;;9177864;19;20357;-67
2022/07/04 00:15:12;;;;;;;5.65;3.35;;;18.30;63.90;;;;;;9178434;19;20014;-68
2022/07/04 00:18:19;;;;;;;8.02;3.53;;;18.30;64.00;;;;;;9173752;19;20025;-67
2022/07/04 00:21:27;;;;;;;9.05;3.38;;;18.20;64.10;;;;;;9175535;19;20027;-67
2022/07/04 00:24:35;;;;;;;6.10;3.45;;;18.10;64.10;;;;;;9176971;19;20018;-67
2022/07/04 00:27:40;;;;;;;6.55;3.72;;;18.10;64.20;;;;;;9178682;19;20019;-67
2022/07/04 00:30:48;;;;;;;9.02;3.50;;;18.10;64.20;;;;;;9176921;19;20604;-69
2022/07/04 00:33:58;;;;;;;7.65;3.38;;;18.00;64.40;;;;;;9177948;19;20030;-69
2022/07/04 00:37:03;;;;;;;10.05;3.30;;;18.00;64.40;;;;;;9178604;19;20372;-67
2022/07/04 00:40:15;;;;;;;6.53;3.33;;;18.00;64.40;;;;;;9175176;19;20010;-67
2022/07/04 00:43:25;;;;;;;14.25;3.70;;;17.90;64.50;;;;;;9175953;19;20014;-67
2022/07/04 00:46:30;;;;;;;5.75;3.05;;;17.90;64.60;;;;;;9177388;19;20015;-67
2022/07/04 00:49:36;;;;;;;8.38;3.78;;;17.80;64.60;;;;;;9177148;19;20022;-69
2022/07/04 00:52:42;;;;;;;6.82;3.53;;;17.80;64.70;;;;;;9177835;19;20017;-67
2022/07/04 00:55:49;;;;;;;7.00;4.38;;;17.70;64.80;;;;;;9175957;19;20021;-67
2022/07/04 00:58:55;;;;;;;5.25;3.47;;;17.70;64.90;;;;;;9178203;19;20017;-67
2022/07/04 01:02:00;;;;;;;4.63;3.33;;;17.60;64.90;;;;;;9179173;19;20022;-67
2022/07/04 01:05:06;;;;;;;6.15;3.38;;;17.60;65.00;;;;;;9180864;19;20022;-67
2022/07/04 01:08:13;;;;;;;7.45;3.25;;;17.50;65.10;;;;;;9184165;19;20007;-66
2022/07/04 01:11:21;;;;;;;5.85;3.67;;;17.50;65.20;;;;;;9184128;19;20575;-67
2022/07/04 01:14:26;;;;;;;6.05;3.25;;;17.40;65.30;;;;;;9184298;19;20026;-67
2022/07/04 01:17:31;;;;;;;8.13;3.28;;;17.40;65.30;;;;;;9179805;19;20026;-66
2022/07/04 01:20:40;;;;;;;6.60;3.53;;;17.40;65.30;;;;;;9182423;19;20669;-67
2022/07/04 01:23:45;;;;;;;7.47;3.72;;;17.30;65.50;;;;;;9184225;19;20507;-67
2022/07/04 01:26:50;;;;;;;5.82;3.22;;;17.30;65.40;;;;;;9185028;19;20022;-67
2022/07/04 01:29:55;;;;;;;4.88;4.05;;;17.20;65.40;;;;;;9184067;19;20368;-67
2022/07/04 01:33:00;;;;;;;5.38;3.13;;;17.20;65.50;;;;;;9185026;19;20014;-67
2022/07/04 01:36:08;;;;;;;6.43;3.03;;;17.20;65.60;;;;;;9183359;19;20018;-67
2022/07/04 01:39:13;;;;;;;8.65;3.60;;;17.10;65.60;;;;;;9183633;19;20018;-68
2022/07/04 01:42:18;;;;;;;9.70;3.17;;;17.10;65.70;;;;;;9184297;19;20018;-68
2022/07/04 01:45:25;;;;;;;3.13;2.83;;;17.00;65.60;;;;;;9182307;19;20050;-67
2022/07/04 01:48:30;;;;;;;8.98;3.63;;;17.00;65.70;;;;;;9184734;19;20045;-67
2022/07/04 01:51:38;;;;;;;6.10;3.33;;;17.00;65.70;;;;;;9182340;19;20915;-66
2022/07/04 01:54:43;;;;;;;5.25;2.90;;;16.90;65.90;;;;;;9185258;19;20086;-67
2022/07/04 01:57:48;;;;;;;3.15;2.85;;;16.90;65.90;;;;;;9182605;19;20022;-66
2022/07/04 02:04:11;;;;;;;8.27;3.33;;;16.80;65.90;;;;;;9182720;19;20040;-67
2022/07/04 02:07:19;;;;;;;5.47;2.70;;;16.70;66.00;;;;;;9182508;19;20026;-66
2022/07/04 02:10:24;;;;;;;7.00;3.00;;;16.70;66.10;;;;;;9181783;19;20033;-66
2022/07/04 02:13:27;;;;;;;12.85;3.78;;;16.60;66.00;;;;;;9180670;19;20015;-67
2022/07/04 02:16:34;;;;;;;6.32;3.47;;;16.60;66.10;;;;;;9179217;19;20018;-67
2022/07/04 02:19:39;;;;;;;6.15;3.00;;;16.60;66.20;;;;;;9182893;19;20348;-68
2022/07/04 02:22:47;;;;;;;7.30;3.65;;;16.50;66.20;;;;;;9182723;19;20021;-67
2022/07/04 02:25:52;;;;;;;7.00;3.05;;;16.50;66.30;;;;;;9182418;19;20089;-68
2022/07/04 02:28:57;;;;;;;12.15;3.75;;;16.50;66.30;;;;;;9181145;19;20022;-67
2022/07/04 02:32:02;;;;;;;6.40;2.88;;;16.40;66.30;;;;;;9180639;19;20024;-67
2022/07/04 02:35:09;;;;;;;4.38;3.35;;;16.40;66.40;;;;;;9181039;19;20011;-66
2022/07/04 02:38:17;;;;;;;5.38;2.75;;;16.40;66.50;;;;;;9181644;19;20480;-68
2022/07/04 02:41:22;;;;;;;8.52;3.13;;;16.30;66.50;;;;;;9178159;19;20002;-66
2022/07/04 02:44:27;;;;;;;7.65;3.28;;;16.30;66.50;;;;;;9180314;19;19999;-66
2022/07/04 02:47:33;;;;;;;6.75;3.22;;;16.30;66.60;;;;;;9181674;19;20472;-67
2022/07/04 02:50:38;;;;;;;4.97;3.22;;;16.20;66.60;;;;;;9181684;19;20117;-67
2022/07/04 02:53:45;;;;;;;5.32;3.38;;;16.20;66.70;;;;;;9182278;19;20018;-67
2022/07/04 02:56:50;;;;;;;6.05;3.13;;;16.10;66.70;;;;;;9179599;19;20010;-67
2022/07/04 02:59:55;;;;;;;6.43;3.28;;;16.10;66.70;;;;;;9178903;19;20022;-67
2022/07/04 03:03:00;;;;;;;6.57;3.42;;;16.10;66.80;;;;;;9181330;19;20108;-67
2022/07/04 03:06:05;;;;;;;6.55;3.63;;;16.00;66.80;;;;;;9181638;19;20018;-67
2022/07/04 03:09:13;;;;;;;6.85;3.40;;;16.00;66.90;;;;;;9181156;19;20022;-67
2022/07/04 03:12:18;;;;;;;5.00;3.55;;;16.00;67.00;;;;;;9180095;19;20516;-67
2022/07/04 03:15:23;;;;;;;4.55;3.30;;;15.90;66.90;;;;;;9178532;19;20019;-67
2022/07/04 03:18:28;;;;;;;3.88;3.15;;;15.90;67.00;;;;;;9177511;19;20018;-66
2022/07/04 03:21:36;;;;;;;6.00;3.13;;;15.80;67.00;;;;;;9176944;19;20102;-67
2022/07/04 03:24:43;;;;;;;7.35;3.47;;;15.80;67.10;;;;;;9178474;19;20477;-67
2022/07/04 03:27:49;;;;;;;5.97;3.40;;;15.80;67.20;;;;;;9180563;19;20014;-66
2022/07/04 03:30:54;;;;;;;5.45;3.88;;;15.80;67.20;;;;;;9179635;19;20468;-67
2022/07/04 03:33:59;;;;;;;5.03;3.30;;;15.70;67.20;;;;;;9178960;19;20017;-67
2022/07/04 03:37:04;;;;;;;8.93;2.97;;;15.70;67.30;;;;;;9181159;19;20017;-66
2022/07/04 03:40:13;;;;;;;5.22;3.15;;;15.70;68.10;;;;;;9177420;19;20025;-66
2022/07/04 03:43:18;;;;;;;5.50;3.20;;;15.60;67.50;;;;;;9177933;19;20118;-67
2022/07/04 03:46:23;;;;;;;6.82;3.42;;;15.60;67.40;;;;;;9178129;19;20404;-67
2022/07/04 03:49:28;;;;;;;6.50;3.53;;;15.60;67.50;;;;;;9179861;19;20025;-66
2022/07/04 03:52:34;;;;;;;6.20;3.70;;;15.60;67.60;;;;;;9180084;19;20341;-67
2022/07/04 03:55:41;;;;;;;5.10;3.30;;;15.50;67.60;;;;;;9180262;19;20025;-68
2022/07/04 03:58:48;;;;;;;9.52;3.63;;;15.50;67.70;;;;;;9179533;19;20059;-66
2022/07/04 04:01:54;;;;;;;5.30;3.70;;;15.50;67.70;;;;;;9176551;19;20025;-66
2022/07/04 04:08:16;;;;;;;8.57;4.10;;;15.40;67.90;;;;;;9177132;19;20018;-67
2022/07/04 04:11:24;;;;;;;7.60;3.95;;;15.40;67.90;;;;;;9179629;19;20022;-66
2022/07/04 04:14:29;;;;;;;10.40;4.47;;;15.40;68.10;;;;;;9179507;19;20015;-66
2022/07/04 04:17:34;;;;;;;7.80;4.70;;;15.40;68.20;;;;;;9176857;19;20022;-67
2022/07/04 04:20:39;;;;;;;7.50;4.00;;;15.40;68.30;;;;;;9179563;19;20018;-66
2022/07/04 04:23:44;;;;;;;6.30;4.25;;;15.40;68.40;;;;;;9179277;19;20015;-66
2022/07/04 04:26:52;;;;;;;9.63;4.88;;;15.40;68.40;;;;;;9178151;19;20486;-66
2022/07/04 04:29:57;;;;;;;6.95;4.85;;;15.40;68.60;;;;;;9178136;19;20480;-66
2022/07/04 04:33:02;;;;;;;7.57;4.38;;;15.40;68.60;;;;;;9179831;19;20436;-66
2022/07/04 04:36:07;;;;;;;7.50;4.38;;;15.40;68.70;;;;;;9180277;19;20030;-65
2022/07/04 04:39:13;;;;;;;12.27;5.07;;;15.40;68.80;;;;;;9188430;19;20011;-65
2022/07/04 04:42:21;;;;;;;11.30;4.93;;;15.40;68.90;;;;;;9185082;19;20022;-66
2022/07/04 04:45:26;;;;;;;10.13;4.65;;;15.40;69.00;;;;;;9187481;19;20025;-65
2022/07/04 04:48:31;;;;;;;11.63;5.20;;;15.40;69.00;;;;;;9188589;19;20018;-66
2022/07/04 04:51:36;;;;;;;9.50;5.15;;;15.50;69.10;;;;;;9186847;19;20364;-66
2022/07/04 04:54:41;;;;;;;9.52;5.32;;;15.50;69.20;;;;;;9186594;19;20014;-67
2022/07/04 04:57:49;;;;;;;8.00;5.15;;;15.50;69.30;;;;;;9185511;19;20021;-67
2022/07/04 05:00:54;;;;;;;8.80;5.47;;;15.50;69.40;;;;;;9184860;19;20022;-67
2022/07/04 05:04:20;;;;;;;9.73;4.95;;;15.50;69.40;;;;;;9183582;19;20093;-67
2022/07/04 05:07:25;;;;;;;12.32;5.82;;;15.50;69.40;;;;;;9185942;19;20017;-66
2022/07/04 05:10:30;;;;;;;10.23;4.93;;;15.50;69.50;;;;;;9186892;19;20018;-67
2022/07/04 05:13:37;;;;;;;15.35;5.03;;;15.60;69.60;;;;;;9184568;19;20023;-67
2022/07/04 05:16:42;;;;;;;16.35;5.65;;;15.60;69.80;;;;;;9181198;19;20010;-67
2022/07/04 05:19:48;;;;;;;9.25;5.00;;;15.60;69.80;;;;;;9187316;19;20014;-66
2022/07/04 05:22:53;;;;;;;9.40;5.05;;;15.60;69.80;;;;;;9183054;19;20020;-66
2022/07/04 05:25:58;;;;;;;9.10;5.03;;;15.70;69.90;;;;;;9185382;19;20089;-67
2022/07/04 05:29:05;;;;;;;8.68;4.90;;;15.70;70.10;;;;;;9184822;19;20446;-66
2022/07/04 05:32:11;;;;;;;13.43;6.07;;;15.70;70.20;;;;;;9182059;19;20022;-66
2022/07/04 05:35:16;;;;;;;10.20;5.70;;;15.80;70.20;;;;;;9183835;19;20022;-65
2022/07/04 05:38:21;;;;;;;16.00;5.22;;;15.80;70.40;;;;;;9185047;19;20018;-66
2022/07/04 05:41:26;;;;;;;13.13;6.50;;;15.90;70.40;;;;;;9179357;19;20384;-68
2022/07/04 05:44:34;;;;;;;16.88;4.95;;;16.00;70.60;;;;;;9180659;19;20122;-66
2022/07/04 05:47:39;;;;;;;14.23;5.55;;;16.10;70.80;;;;;;9181288;19;20024;-66
2022/07/04 05:50:44;;;;;;;12.32;5.93;;;16.20;70.80;;;;;;9178402;19;20030;-66
2022/07/04 05:53:49;;;;;;;6.32;4.88;;;16.30;70.90;;;;;;9179238;19;20022;-67
2022/07/04 05:56:54;;;;;;;23.95;4.93;;;16.50;71.00;;;;;;9178651;19;20022;-66
2022/07/04 06:00:02;;;;;;;11.52;4.55;;;16.60;71.00;;;;;;9180250;19;20025;-65
2022/07/04 06:03:09;;;;;;;9.43;4.70;;;16.80;71.10;;;;;;9181923;19;20025;-66
2022/07/04 06:06:16;;;;;;;11.07;5.32;;;17.00;71.00;;;;;;9184848;19;20021;-66
2022/07/04 06:09:21;;;;;;;13.80;4.97;;;17.20;70.90;;;;;;9184091;19;20014;-67
2022/07/04 06:12:26;;;;;;;12.75;4.25;;;17.40;70.70;;;;;;9181245;19;20018;-67
2022/07/04 06:15:34;;;;;;;10.95;4.05;;;17.60;70.60;;;;;;9174993;19;20105;-68
2022/07/04 06:18:39;;;;;;;9.40;3.42;;;17.80;70.60;;;;;;9172280;19;20018;-67
2022/07/04 06:21:44;;;;;;;8.68;4.00;;;18.00;70.40;;;;;;9174718;19;20025;-66
2022/07/04 06:24:49;;;;;;;10.65;3.67;;;18.30;70.30;;;;;;9172940;19;20025;-66
2022/07/04 06:27:54;;;;;;;7.88;3.20;;;18.40;70.20;;;;;;9174482;19;20025;-66
2022/07/04 06:31:02;;;;;;;6.72;3.10;;;18.60;70.00;;;;;;9175607;19;20038;-67
2022/07/04 06:37:27;;;;;;;7.07;3.10;;;19.00;69.50;;;;;;9178113;19;20472;-65
2022/07/04 06:40:40;;;;;;;5.63;2.78;;;19.30;69.40;;;;;;9175323;19;20006;-68
2022/07/04 06:43:48;;;;;;;10.50;3.40;;;19.50;69.20;;;;;;9171740;19;20400;-66
2022/07/04 06:46:57;;;;;;;8.25;2.95;;;19.70;69.00;;;;;;9178140;19;20036;-68
2022/07/04 06:50:06;;;;;;;13.30;2.90;;;19.90;68.80;;;;;;9178180;19;20010;-69
2022/07/04 06:53:32;;;;;;;8.05;2.83;;;20.10;68.50;;;;;;9175970;19;20820;-70
2022/07/04 06:56:37;;;;;;;10.95;2.88;;;20.20;68.30;;;;;;9176110;19;20391;-68
2022/07/04 06:59:42;;;;;;;6.80;3.08;;;20.40;68.00;;;;;;9176096;19;20107;-70
2022/07/04 07:02:50;;;;;;;7.57;2.60;;;20.60;67.80;;;;;;9176751;19;20018;-67
2022/07/04 07:05:56;;;;;;;9.27;2.88;;;20.70;67.50;;;;;;9178688;19;20460;-67
2022/07/04 07:09:04;;;;;;;6.15;2.60;;;20.90;67.40;;;;;;9180384;19;20018;-70
2022/07/04 07:12:10;;;;;;;11.13;2.85;;;21.00;67.20;;;;;;9180864;19;20021;-68
2022/07/04 07:15:16;;;;;;;14.60;2.88;;;21.20;66.90;;;;;;9178563;19;20019;-70
2022/07/04 07:18:24;;;;;;;5.95;2.78;;;21.30;66.80;;;;;;9175633;19;20459;-69
2022/07/04 07:21:29;;;;;;;9.82;3.25;;;21.50;66.70;;;;;;9180319;19;20018;-68
2022/07/04 07:24:34;;;;;;;7.55;3.90;;;21.60;66.50;;;;;;9179026;19;20017;-69
2022/07/04 07:27:39;;;;;;;6.10;2.67;;;21.70;66.30;;;;;;9179964;19;20015;-69
2022/07/04 07:30:44;;;;;;;13.00;3.13;;;21.90;66.20;;;;;;9180374;19;20026;-69
2022/07/04 07:33:52;;;;;;;5.38;2.42;;;22.00;66.00;;;;;;9181349;19;20460;-70
2022/07/04 07:36:57;;;;;;;11.10;2.80;;;22.10;65.80;;;;;;9180893;19;20018;-70
2022/07/04 07:40:02;;;;;;;5.95;2.55;;;22.20;65.70;;;;;;9180838;19;20555;-69
2022/07/04 07:43:08;;;;;;;7.20;2.38;;;22.30;65.40;;;;;;9180632;19;20018;-69
2022/07/04 07:46:13;;;;;;;7.35;2.53;;;22.40;65.30;;;;;;9179592;19;20014;-72
2022/07/04 07:49:20;;;;;;;6.38;2.90;;;22.50;65.00;;;;;;9179237;19;20015;-70
2022/07/04 07:52:25;;;;;;;6.47;2.40;;;22.60;64.80;;;;;;9181311;19;20018;-70
2022/07/04 07:55:31;;;;;;;5.72;2.30;;;22.60;64.80;;;;;;9175345;19;20015;-72
2022/07/04 07:58:37;;;;;;;5.90;2.25;;;22.70;64.70;;;;;;9173909;19;20010;-71
2022/07/04 08:01:42;;;;;;;5.93;2.35;;;22.70;64.60;;;;;;9173038;19;20390;-70
2022/07/04 08:04:47;;;;;;;7.43;2.00;;;22.80;64.50;;;;;;9171040;19;20017;-71
2022/07/04 08:07:52;;;;;;;8.10;2.30;;;22.80;64.50;;;;;;9175241;19;20018;-69
2022/07/04 08:10:57;;;;;;;8.73;2.00;;;22.90;64.40;;;;;;9177900;19;20018;-68
2022/07/04 08:14:02;;;;;;;10.60;2.20;;;22.90;64.20;;;;;;9181279;19;20969;-69
2022/07/04 08:17:07;;;;;;;8.48;2.22;;;23.00;64.00;;;;;;9180940;19;20364;-68
2022/07/04 08:20:15;;;;;;;5.95;2.00;;;23.00;63.80;;;;;;9179583;19;20019;-70
2022/07/04 08:23:21;;;;;;;5.30;2.03;;;23.00;63.90;;;;;;9181191;19;20014;-66
2022/07/04 08:26:26;;;;;;;7.50;1.80;;;23.10;63.70;;;;;;9186959;19;20011;-67
2022/07/04 08:29:32;;;;;;;11.32;2.38;;;23.10;63.50;;;;;;9187132;19;20022;-68
2022/07/04 08:32:37;;;;;;;4.28;1.77;;;23.10;63.30;;;;;;9186106;19;20026;-67
2022/07/04 08:35:45;;;;;;;8.57;2.00;;;23.10;63.30;;;;;;9184605;19;20048;-66
2022/07/04 08:38:50;;;;;;;7.75;1.70;;;23.10;63.40;;;;;;9182784;19;20015;-69
2022/07/04 08:41:57;;;;;;;8.10;1.60;;;23.10;63.30;;;;;;9186676;19;20018;-70
2022/07/04 08:45:04;;;;;;;9.10;1.88;;;23.10;63.10;;;;;;9180660;19;20053;-68
2022/07/04 08:48:10;;;;;;;5.22;1.65;;;23.10;63.00;;;;;;9189126;19;20356;-66
2022/07/04 08:51:21;;;;;;;6.38;2.03;;;23.10;63.10;;;;;;9181528;19;20022;-69
2022/07/04 09:01:04;;;;;;;7.43;1.58;;;23.20;63.00;;;;;;9183145;19;20010;-67
2022/07/04 09:04:10;;;;;;;5.18;1.73;;;23.20;62.80;;;;;;9179771;19;20026;-67
2022/07/04 09:07:18;;;;;;;6.35;2.08;;;23.30;62.90;;;;;;9181826;19;20073;-67
2022/07/04 09:10:24;;;;;;;10.45;1.70;;;23.30;62.80;;;;;;9181400;19;20070;-68
2022/07/04 09:13:29;;;;;;;7.18;1.92;;;23.40;62.80;;;;;;9183451;19;20045;-66
2022/07/04 09:16:34;;;;;;;6.05;1.70;;;23.50;62.70;;;;;;9177790;19;20014;-68
2022/07/04 09:19:39;;;;;;;7.72;1.75;;;23.50;62.60;;;;;;9182700;19;20487;-69
2022/07/04 09:22:48;;;;;;;9.13;2.10;;;23.60;62.50;;;;;;9178527;19;20415;-68
2022/07/04 09:26:11;;;;;;;6.38;1.95;;;23.60;62.40;;;;;;9179995;19;20018;-68
2022/07/04 09:29:17;;;;;;;7.70;1.55;;;23.70;62.20;;;;;;9180767;19;20015;-67
2022/07/04 09:32:35;;;;;;;6.85;1.55;;;23.70;62.10;;;;;;9179007;19;20426;-70
2022/07/04 09:35:41;;;;;;;6.85;2.10;;;23.70;61.90;;;;;;9182150;19;20054;-68
2022/07/04 09:39:09;;;;;;;11.40;1.98;;;23.70;61.90;;;;;;9176225;19;20018;-68
2022/07/04 09:42:14;;;;;;;11.52;2.63;;;23.70;61.70;;;;;;9179030;19;20715;-66
2022/07/04 09:45:21;;;;;;;9.25;2.28;;;23.70;61.70;;;;;;9177425;19;20025;-67
2022/07/04 09:48:26;;;;;;;10.45;2.28;;;23.70;61.70;;;;;;9180726;19;20023;-68
2022/07/04 09:51:39;;;;;;;10.10;2.15;;;23.60;61.60;;;;;;9180016;19;20070;-68
2022/07/04 09:54:50;;;;;;;9.88;1.80;;;23.60;61.50;;;;;;9178741;19;20563;-69
2022/07/04 09:57:57;;;;;;;10.75;2.65;;;23.50;61.50;;;;;;9181270;19;20834;-69
2022/07/04 10:01:02;;;;;;;12.88;2.75;;;23.50;61.60;;;;;;9181841;19;20034;-69
2022/07/04 10:04:08;;;;;;;14.52;2.67;;;23.40;61.70;;;;;;9178088;19;21051;-66
2022/07/04 10:07:14;;;;;;;8.00;1.85;;;23.30;61.90;;;;;;9181986;19;20463;-67
2022/07/04 10:10:33;;;;;;;6.85;1.90;;;23.30;61.80;;;;;;9179551;19;20021;-67
2022/07/04 10:13:40;;;;;;;7.25;1.90;;;23.30;61.70;;;;;;9175326;19;20591;-66
2022/07/04 10:16:45;;;;;;;7.25;2.47;;;23.30;61.60;;;;;;9174993;19;20471;-69
2022/07/04 10:19:52;;;;;;;8.80;2.00;;;23.40;61.60;;;;;;9178453;19;20015;-67
2022/07/04 10:22:58;;;;;;;9.32;2.17;;;23.40;61.50;;;;;;9177642;19;20607;-67
2022/07/04 10:26:06;;;;;;;8.85;2.30;;;23.50;61.40;;;;;;9175090;19;20010;-67
2022/07/04 10:29:14;;;;;;;10.05;2.50;;;23.50;61.40;;;;;;9178625;19;20625;-71
2022/07/04 10:32:19;;;;;;;6.03;2.28;;;23.60;61.30;;;;;;9174697;19;20022;-66
2022/07/04 10:35:49;;;;;;;8.43;2.05;;;23.60;61.20;;;;;;9176598;19;20022;-69
2022/07/04 10:38:56;;;;;;;6.75;1.80;;;23.70;61.00;;;;;;9177837;19;20010;-67
2022/07/04 10:42:06;;;;;;;8.55;1.80;;;23.70;61.00;;;;;;9179897;19;20018;-67
2022/07/04 10:45:11;;;;;;;5.57;1.95;;;23.80;60.80;;;;;;9173567;19;20495;-68
2022/07/04 10:48:22;;;;;;;12.85;2.42;;;23.80;60.70;;;;;;9176383;19;20022;-66
2022/07/04 10:51:43;;;;;;;22.38;2.20;;;23.80;60.50;;;;;;9175054;19;20018;-65
2022/07/04 10:54:48;;;;;;;7.80;2.08;;;23.70;60.40;;;;;;9177224;19;20006;-69
2022/07/04 10:57:56;;;;;;;3.55;1.73;;;23.70;60.50;;;;;;9175710;19;20007;-67
2022/07/04 11:01:14;;;;;;;4.32;1.42;;;23.70;60.40;;;;;;9176882;19;20319;-66
2022/07/04 11:04:50;;;;;;;6.18;2.08;;;23.60;60.20;;;;;;9175603;19;20082;-66
2022/07/04 11:08:05;;;;;;;6.57;1.60;;;23.50;60.00;;;;;;9173422;19;20086;-66
2022/07/04 11:11:45;;;;;;;8.93;1.70;;;23.50;60.10;;;;;;9178764;19;20018;-66
2022/07/04 11:14:52;;;;;;;9.13;1.70;;;23.40;60.00;;;;;;9178514;19;21014;-67
2022/07/04 11:17:59;;;;;;;7.35;1.73;;;23.30;60.10;;;;;;9173886;19;20025;-65
2022/07/04 11:21:04;;;;;;;5.28;1.52;;;23.30;60.20;;;;;;9173224;19;20053;-68
2022/07/04 11:24:10;;;;;;;5.03;1.50;;;23.30;60.20;;;;;;9173050;19;20018;-66
2022/07/04 11:27:19;;;;;;;4.22;1.48;;;23.30;60.20;;;;;;9173862;19;20018;-66
2022/07/04 11:30:26;;;;;;;9.95;1.48;;;23.30;60.20;;;;;;9173899;19;20018;-66
2022/07/04 11:33:34;;;;;;;4.53;1.27;;;23.40;60.10;;;;;;9171542;19;20014;-67
2022/07/04 11:36:40;;;;;;;4.00;1.30;;;23.50;60.00;;;;;;9171858;19;20011;-65
2022/07/04 11:39:45;;;;;;;7.53;1.42;;;23.50;59.70;;;;;;9171727;19;20028;-66
2022/07/04 11:46:26;;;;;;;4.90;1.20;;;23.70;59.30;;;;;;9166972;19;20025;-67
2022/07/04 11:49:31;;;;;;;2.47;1.00;;;23.80;59.30;;;;;;9169984;19;20026;-66
2022/07/04 11:52:43;;;;;;;3.50;0.90;;;24.00;59.30;;;;;;9172870;19;20017;-66
2022/07/04 11:56:09;;;;;;;4.53;1.05;;;24.20;59.00;;;;;;9170596;19;20422;-66
2022/07/04 11:59:16;;;;;;;4.80;1.95;;;24.30;58.90;;;;;;9167897;19;20049;-65
2022/07/04 12:02:24;;;;;;;4.30;0.90;;;24.60;58.60;;;;;;9170304;19;20027;-66
2022/07/04 12:05:30;;;;;;;3.28;1.25;;;24.80;58.30;;;;;;9169207;19;20652;-67
2022/07/04 12:08:35;;;;;;;6.22;1.08;;;25.00;58.10;;;;;;9169380;19;20022;-66
2022/07/04 12:11:54;;;;;;;3.97;1.05;;;25.20;57.90;;;;;;9168782;19;20035;-66
2022/07/04 12:15:04;;;;;;;3.78;1.17;;;25.40;57.20;;;;;;9171053;19;20126;-66
2022/07/04 12:18:20;;;;;;;1.70;1.02;;;25.50;57.20;;;;;;9167651;19;20018;-66
2022/07/04 12:21:25;;;;;;;3.05;1.10;;;25.70;56.60;;;;;;9169570;19;20014;-67
2022/07/04 12:24:30;;;;;;;2.25;0.90;;;25.70;56.60;;;;;;9168533;19;20484;-67
2022/07/04 12:27:36;;;;;;;5.72;1.42;;;25.80;56.40;;;;;;9169627;19;20015;-67
2022/07/04 12:30:52;;;;;;;3.58;1.02;;;25.90;56.30;;;;;;9167732;19;20014;-68
2022/07/04 12:34:00;;;;;;;8.50;1.85;;;25.90;56.20;;;;;;9173556;19;20490;-68
2022/07/04 12:37:11;;;;;;;2.60;0.98;;;25.80;56.10;;;;;;9175067;19;20018;-66
2022/07/04 12:40:17;;;;;;;7.22;1.13;;;25.80;55.90;;;;;;9169279;19;20046;-67
2022/07/04 12:43:23;;;;;;;3.70;1.33;;;25.80;55.90;;;;;;9170063;19;20734;-68
2022/07/04 12:46:31;;;;;;;3.42;1.38;;;25.80;55.90;;;;;;9167120;19;20099;-68
2022/07/04 12:49:39;;;;;;;4.50;1.33;;;25.80;55.80;;;;;;9170506;19;20039;-66
2022/07/04 12:52:45;;;;;;;3.55;1.00;;;25.90;55.60;;;;;;9167538;19;20018;-67
2022/07/04 12:55:51;;;;;;;3.95;0.95;;;26.00;55.60;;;;;;9171488;19;20628;-67
2022/07/04 12:58:56;;;;;;;1.58;0.88;;;26.00;55.40;;;;;;9178830;19;20014;-67
2022/07/04 13:02:01;;;;;;;3.47;1.17;;;26.10;55.30;;;;;;9178231;19;20021;-67
2022/07/04 13:05:11;;;;;;;6.90;0.98;;;26.20;55.10;;;;;;9174961;19;20022;-67
2022/07/04 13:08:16;;;;;;;7.50;1.00;;;26.20;54.80;;;;;;9178035;19;20015;-67
2022/07/04 13:14:39;;;;;;;1.70;0.93;;;26.40;54.80;;;;;;9177638;19;20019;-67
2022/07/04 13:17:44;;;;;;;1.65;0.88;;;26.50;54.60;;;;;;9173337;19;20340;-66
2022/07/04 13:20:51;;;;;;;3.15;0.88;;;26.50;54.30;;;;;;9180357;19;20014;-68
2022/07/04 13:23:57;;;;;;;1.98;0.82;;;26.60;54.00;;;;;;9178477;19;20018;-67
2022/07/04 13:27:02;;;;;;;1.42;0.77;;;26.80;54.10;;;;;;9176899;19;20014;-67
2022/07/04 13:30:08;;;;;;;1.40;0.80;;;26.80;53.80;;;;;;9176473;19;20026;-67
2022/07/04 13:33:13;;;;;;;3.53;0.80;;;26.90;53.50;;;;;;9175200;19;20047;-69
2022/07/04 13:36:21;;;;;;;1.98;0.90;;;27.00;53.40;;;;;;9176773;19;20027;-66
2022/07/04 13:39:29;;;;;;;3.80;1.23;;;27.00;53.00;;;;;;9176042;19;20030;-67
2022/07/04 13:43:00;;;;;;;5.05;0.77;;;27.10;53.00;;;;;;9178142;19;20014;-68
2022/07/04 13:46:05;;;;;;;6.88;0.90;;;27.10;53.10;;;;;;9175299;19;20034;-67
2022/07/04 13:49:11;;;;;;;1.25;0.55;;;27.20;52.90;;;;;;9177814;19;20807;-67
2022/07/04 13:52:20;;;;;;;2.00;0.80;;;27.20;52.80;;;;;;9174560;19;20513;-67
2022/07/04 13:55:25;;;;;;;3.00;0.88;;;27.20;52.60;;;;;;9175025;19;20025;-67
2022/07/04 13:58:31;;;;;;;3.92;1.10;;;27.30;52.80;;;;;;9175265;19;20023;-68
2022/07/04 14:01:36;;;;;;;2.05;0.98;;;27.30;52.50;;;;;;9175127;19;20048;-66
2022/07/04 14:04:41;;;;;;;3.65;1.10;;;27.30;52.40;;;;;;9171550;19;20153;-69
2022/07/04 14:07:49;;;;;;;5.47;1.10;;;27.30;52.10;;;;;;9168602;19;20025;-69
2022/07/04 14:10:54;;;;;;;2.17;0.90;;;27.40;51.90;;;;;;9174352;19;20691;-70
2022/07/04 14:13:59;;;;;;;1.55;0.80;;;27.40;51.90;;;;;;9183874;19;20029;-69
2022/07/04 14:17:10;;;;;;;3.10;1.10;;;27.40;51.80;;;;;;9179340;19;20566;-71
2022/07/04 14:20:35;;;;;;;2.78;1.50;;;27.40;51.70;;;;;;9183879;19;20011;-69
2022/07/04 14:23:45;;;;;;;1.67;0.80;;;27.40;51.60;;;;;;9182480;19;20017;-68
2022/07/04 14:26:50;;;;;;;3.10;0.80;;;27.40;51.50;;;;;;9182036;19;20366;-66
2022/07/04 14:29:58;;;;;;;1.70;0.85;;;27.40;51.60;;;;;;9182886;19;20468;-69
2022/07/04 14:33:03;;;;;;;1.90;1.20;;;27.30;51.40;;;;;;9184600;19;20380;-67
2022/07/04 14:36:09;;;;;;;3.47;1.20;;;27.30;51.40;;;;;;9182577;19;20015;-68
2022/07/04 14:39:18;;;;;;;7.30;0.82;;;27.30;51.30;;;;;;9183459;19;20018;-69
2022/07/04 14:42:23;;;;;;;3.10;0.90;;;27.30;51.10;;;;;;9181743;19;20026;-68
2022/07/04 14:45:30;;;;;;;3.17;0.80;;;27.30;51.20;;;;;;9181459;19;20033;-67
2022/07/04 14:48:35;;;;;;;9.52;0.88;;;27.20;51.00;;;;;;9183780;19;20078;-68
2022/07/04 14:51:41;;;;;;;1.17;0.70;;;27.20;51.00;;;;;;9182025;19;20015;-66
2022/07/04 14:54:48;;;;;;;1.77;0.77;;;27.20;50.90;;;;;;9181166;19;20007;-68
2022/07/04 14:57:53;;;;;;;1.85;0.88;;;27.20;50.70;;;;;;9181328;19;20017;-67
2022/07/04 15:00:59;;;;;;;2.45;0.90;;;27.10;50.80;;;;;;9182905;19;20021;-67
2022/07/04 15:04:04;;;;;;;2.53;1.00;;;27.10;50.90;;;;;;9180249;19;20490;-68
2022/07/04 15:07:09;;;;;;;1.95;0.75;;;27.00;50.80;;;;;;9182181;19;20011;-68
2022/07/04 15:10:17;;;;;;;2.70;0.80;;;26.90;50.70;;;;;;9181344;19;20048;-67
2022/07/04 15:13:22;;;;;;;3.53;0.90;;;26.90;50.60;;;;;;9182806;19;20019;-66
2022/07/04 15:16:27;;;;;;;4.45;1.30;;;26.90;50.70;;;;;;9176782;19;20014;-68
2022/07/04 15:24:10;;;;;;;2.95;1.02;;;26.80;50.60;;;;;;9179154;19;20018;-69
2022/07/04 15:26:18;;;;;;;2.47;0.80;;;26.80;50.50;;;;;;9181187;19;20038;-68
2022/07/04 15:29:25;;;;;;;3.28;0.90;;;26.80;50.60;;;;;;9172285;19;20423;-68
2022/07/04 15:32:31;;;;;;;5.13;0.93;;;26.80;50.50;;;;;;9175731;19;20520;-68
2022/07/04 15:35:37;;;;;;;4.72;0.93;;;26.70;50.50;;;;;;9172719;19;20037;-66
2022/07/04 15:38:48;;;;;;;2.03;0.98;;;26.70;50.50;;;;;;9173740;19;20014;-67
2022/07/04 15:41:56;;;;;;;1.92;0.55;;;26.70;50.40;;;;;;9178895;19;20017;-67
2022/07/04 15:45:01;;;;;;;6.20;1.13;;;26.60;50.20;;;;;;9179041;19;20020;-70
2022/07/04 15:48:08;;;;;;;2.67;0.80;;;26.50;50.20;;;;;;9178149;19;20021;-69
2022/07/04 15:51:13;;;;;;;1.77;0.90;;;26.50;50.20;;;;;;9177508;19;20516;-71
2022/07/04 15:54:41;;;;;;;1.45;0.82;;;26.40;50.20;;;;;;9179633;19;20499;-69
2022/07/04 15:57:49;;;;;;;1.42;0.68;;;26.30;50.10;;;;;;9178922;19;20010;-69
2022/07/04 16:00:56;;;;;;;4.93;0.88;;;26.30;50.10;;;;;;9180282;19;20018;-70
2022/07/04 16:04:02;;;;;;;13.80;3.38;;;26.20;50.10;;;;;;9175781;19;20587;-67
2022/07/04 16:07:09;;;;;;;10.35;1.98;;;26.10;50.20;;;;;;9174986;19;20713;-66
2022/07/04 16:10:16;;;;;;;6.43;1.25;;;26.10;50.20;;;;;;9172640;19;20048;-67
2022/07/04 16:13:25;;;;;;;7.18;1.58;;;26.00;50.20;;;;;;9169415;19;20246;-67
2022/07/04 16:16:30;;;;;;;5.25;1.33;;;26.00;50.20;;;;;;9165791;19;20377;-67
2022/07/04 16:19:35;;;;;;;4.65;1.02;;;26.00;50.30;;;;;;9165818;19;20555;-68
2022/07/04 16:22:40;;;;;;;4.57;0.90;;;25.90;50.20;;;;;;9169270;19;20014;-67
2022/07/04 16:25:45;;;;;;;2.80;0.77;;;25.90;50.20;;;;;;9171588;19;20014;-67
2022/07/04 16:28:53;;;;;;;2.13;0.88;;;25.80;50.10;;;;;;9170101;19;20618;-69
2022/07/04 16:31:58;;;;;;;7.85;1.42;;;25.80;50.00;;;;;;9170955;19;20030;-68
2022/07/04 16:35:04;;;;;;;2.58;0.95;;;25.70;50.00;;;;;;9181026;19;20010;-68
2022/07/04 16:38:09;;;;;;;3.08;1.10;;;25.70;50.10;;;;;;9178911;19;20024;-67
2022/07/04 16:41:14;;;;;;;1.55;0.77;;;25.70;50.10;;;;;;9180131;19;21202;-66